createdAt,value
2018-12-15T00:00:25.310Z,97446.17
2018-12-15T00:02:53.886Z,97452.36
2018-12-15T00:05:21.467Z,97456.54
2018-12-15T00:07:48.905Z,97458.48
2018-12-15T00:10:16.309Z,97463.34
2018-12-15T00:12:43.871Z,97470.34
2018-12-15T00:15:11.278Z,97468.27
2018-12-15T00:17:38.674Z,97462.20
2018-12-15T00:20:06.110Z,97469.78
2018-12-15T00:22:33.614Z,97473.22
2018-12-15T00:25:01.047Z,97477.59
2018-12-15T00:27:28.493Z,97480.53
2018-12-15T00:29:55.903Z,97477.72
2018-12-15T00:32:23.312Z,97476.03
2018-12-15T00:34:50.745Z,97487.23
2018-12-15T00:37:18.174Z,97498.47
2018-12-15T00:39:45.596Z,97498.89
2018-12-15T00:42:13.741Z,97490.57
2018-12-15T00:44:41.234Z,97498.77
2018-12-15T00:47:13.748Z,97500.31
2018-12-15T00:49:36.139Z,97505.16
2018-12-15T00:52:04.388Z,97511.76
2018-12-15T00:54:31.792Z,97518.92
2018-12-15T00:56:59.207Z,97520.06
2018-12-15T00:59:26.652Z,97519.84
2018-12-15T01:01:54.377Z,97523.34
2018-12-15T01:04:21.795Z,97524.85
2018-12-15T01:06:49.879Z,97531.69
2018-12-15T01:09:17.309Z,97532.86
2018-12-15T01:11:44.711Z,97528.58
2018-12-15T01:14:12.128Z,97533.80
2018-12-15T01:16:39.540Z,97533.80
2018-12-15T01:19:06.958Z,97533.23
2018-12-15T01:21:34.372Z,97531.48
2018-12-15T01:24:01.804Z,97534.81
2018-12-15T01:26:29.209Z,97529.03
2018-12-15T01:28:56.625Z,97531.81
2018-12-15T01:31:24.035Z,97527.77
2018-12-15T01:33:51.450Z,97528.20
2018-12-15T01:36:19.707Z,97530.42
2018-12-15T01:38:47.110Z,97534.13
2018-12-15T01:41:14.737Z,97528.83
2018-12-15T01:43:42.203Z,97537.11
2018-12-15T01:46:09.721Z,97536.45
2018-12-15T01:48:37.142Z,97539.03
2018-12-15T01:51:04.546Z,97540.45
2018-12-15T01:53:32.015Z,97539.27
2018-12-15T01:55:59.863Z,97541.08
2018-12-15T01:58:27.298Z,97532.98
2018-12-15T02:00:54.756Z,97534.33
2018-12-15T02:03:22.161Z,97534.27
2018-12-15T02:05:49.580Z,97539.39
2018-12-15T02:08:17.362Z,97538.85
2018-12-15T02:10:44.770Z,97533.01
2018-12-15T02:13:12.547Z,97536.56
2018-12-15T02:15:39.950Z,97536.55
2018-12-15T02:18:07.360Z,97532.67
2018-12-15T02:20:34.773Z,97538.61
2018-12-15T02:23:02.207Z,97538.27
2018-12-15T02:25:29.630Z,97527.95
2018-12-15T02:27:57.028Z,97530.96
2018-12-15T02:30:24.451Z,97539.91
2018-12-15T02:32:51.859Z,97538.97
2018-12-15T02:35:19.419Z,97529.49
2018-12-15T02:37:47.975Z,97519.62
2018-12-15T02:40:15.388Z,97519.98
2018-12-15T02:42:42.801Z,97517.66
2018-12-15T02:45:10.299Z,97521.97
2018-12-15T02:47:41.527Z,97531.42
2018-12-15T02:50:05.159Z,97530.61
2018-12-15T02:52:32.576Z,97529.73
2018-12-15T02:54:59.967Z,97522.42
2018-12-15T02:57:27.387Z,97513.33
2018-12-15T02:59:54.775Z,97508.56
2018-12-15T03:02:22.202Z,97519.50
2018-12-15T03:04:49.725Z,97513.45
2018-12-15T03:07:17.134Z,97513.53
2018-12-15T03:09:44.598Z,97510.20
2018-12-15T03:12:12.012Z,97507.61
2018-12-15T03:14:39.420Z,97501.62
2018-12-15T03:17:06.836Z,97505.98
2018-12-15T03:19:34.243Z,97506.82
2018-12-15T03:22:02.587Z,97506.06
2018-12-15T03:24:30.015Z,97512.05
2018-12-15T03:26:57.419Z,97508.95
2018-12-15T03:29:24.831Z,97506.31
2018-12-15T03:31:52.242Z,97504.05
2018-12-15T03:34:19.651Z,97497.97
2018-12-15T03:36:47.073Z,97501.02
2018-12-15T03:39:14.508Z,97497.44
2018-12-15T03:41:41.928Z,97493.39
2018-12-15T03:44:09.343Z,97501.67
2018-12-15T03:46:36.767Z,97508.72
2018-12-15T03:49:04.192Z,97501.08
2018-12-15T03:51:31.612Z,97505.50
2018-12-15T03:53:59.022Z,97499.03
2018-12-15T03:56:26.425Z,97496.20
2018-12-15T03:58:53.829Z,97489.55
2018-12-15T04:01:21.364Z,97490.72
2018-12-15T04:03:48.765Z,97499.02
2018-12-15T04:06:16.175Z,97497.19
2018-12-15T04:08:43.640Z,97503.78
2018-12-15T04:11:11.078Z,97502.48
2018-12-15T04:13:38.590Z,97513.50
2018-12-15T04:16:06.010Z,97505.16
2018-12-15T04:18:33.474Z,97508.44
2018-12-15T04:21:00.933Z,97504.64
2018-12-15T04:23:29.321Z,97508.20
2018-12-15T04:25:57.179Z,97502.22
2018-12-15T04:28:24.631Z,97503.14
2018-12-15T04:30:52.733Z,97505.34
2018-12-15T04:33:20.145Z,97506.97
2018-12-15T04:35:47.656Z,97506.42
2018-12-15T04:38:15.050Z,97505.52
2018-12-15T04:40:42.472Z,97501.09
2018-12-15T04:43:09.889Z,97507.05
2018-12-15T04:45:37.304Z,97507.03
2018-12-15T04:48:10.808Z,97502.84
2018-12-15T04:50:32.176Z,97494.02
2018-12-15T04:52:59.657Z,97498.41
2018-12-15T04:55:27.410Z,97505.30
2018-12-15T04:57:54.855Z,97510.05
2018-12-15T05:00:22.251Z,97512.30
2018-12-15T05:02:49.834Z,97511.12
2018-12-15T05:05:17.233Z,97513.73
2018-12-15T05:07:44.694Z,97514.66
2018-12-15T05:10:12.640Z,97508.95
2018-12-15T05:12:40.052Z,97514.96
2018-12-15T05:15:07.466Z,97503.35
2018-12-15T05:17:34.880Z,97505.43
2018-12-15T05:20:02.308Z,97495.09
2018-12-15T05:22:29.717Z,97497.34
2018-12-15T05:24:57.156Z,97506.47
2018-12-15T05:27:24.568Z,97506.58
2018-12-15T05:29:52.032Z,97514.02
2018-12-15T05:32:19.468Z,97519.67
2018-12-15T05:34:46.926Z,97513.25
2018-12-15T05:37:14.349Z,97517.81
2018-12-15T05:39:41.870Z,97517.89
2018-12-15T05:42:09.295Z,97522.11
2018-12-15T05:44:36.919Z,97524.55
2018-12-15T05:47:04.348Z,97528.30
2018-12-15T05:49:31.762Z,97521.80
2018-12-15T05:51:59.159Z,97531.75
2018-12-15T05:54:26.600Z,97530.56
2018-12-15T05:56:54.027Z,97539.70
2018-12-15T05:59:21.472Z,97534.14
2018-12-15T06:01:48.883Z,97533.67
2018-12-15T06:04:16.289Z,97534.06
2018-12-15T06:06:43.861Z,97532.30
2018-12-15T06:09:11.263Z,97541.64
2018-12-15T06:11:38.711Z,97536.15
2018-12-15T06:14:06.608Z,97538.79
2018-12-15T06:16:34.000Z,97537.42
2018-12-15T06:19:01.409Z,97542.46
2018-12-15T06:21:28.854Z,97544.12
2018-12-15T06:23:56.268Z,97541.88
2018-12-15T06:26:23.688Z,97546.13
2018-12-15T06:28:51.082Z,97551.59
2018-12-15T06:31:18.518Z,97549.03
2018-12-15T06:33:45.910Z,97554.20
2018-12-15T06:36:13.364Z,97556.79
2018-12-15T06:38:40.791Z,97557.66
2018-12-15T06:41:08.736Z,97557.69
2018-12-15T06:43:36.137Z,97564.70
2018-12-15T06:46:03.566Z,97567.16
2018-12-15T06:48:30.971Z,97564.08
2018-12-15T06:50:58.391Z,97564.50
2018-12-15T06:53:25.831Z,97559.42
2018-12-15T06:55:53.240Z,97558.34
2018-12-15T06:58:20.705Z,97560.27
2018-12-15T07:00:48.127Z,97564.68
2018-12-15T07:03:16.390Z,97565.20
2018-12-15T07:05:43.851Z,97571.55
2018-12-15T07:08:11.301Z,97571.23
2018-12-15T07:10:38.782Z,97568.03
2018-12-15T07:13:06.198Z,97576.50
2018-12-15T07:15:33.611Z,97568.22
2018-12-15T07:18:01.179Z,97572.91
2018-12-15T07:20:29.479Z,97571.56
2018-12-15T07:22:56.922Z,97574.26
2018-12-15T07:25:24.465Z,97575.81
2018-12-15T07:27:52.530Z,97570.70
2018-12-15T07:30:20.237Z,97578.92
2018-12-15T07:32:47.682Z,97577.14
2018-12-15T07:35:15.083Z,97576.56
2018-12-15T07:37:42.701Z,97573.81
2018-12-15T07:40:10.128Z,97568.95
2018-12-15T07:42:37.543Z,97571.91
2018-12-15T07:45:04.978Z,97570.03
2018-12-15T07:47:32.375Z,97576.85
2018-12-15T07:49:59.906Z,97577.95
2018-12-15T07:52:27.337Z,97573.23
2018-12-15T07:54:54.741Z,97578.42
2018-12-15T07:57:22.179Z,97583.95
2018-12-15T07:59:49.604Z,97574.71
2018-12-15T08:02:17.257Z,97574.71
2018-12-15T08:04:44.474Z,97576.87
2018-12-15T08:07:11.881Z,97582.73
2018-12-15T08:09:39.295Z,97586.22
2018-12-15T08:12:12.927Z,97580.59
2018-12-15T08:14:40.373Z,97585.14
2018-12-15T08:17:08.547Z,97574.68
2018-12-15T08:19:36.127Z,97579.42
2018-12-15T08:22:03.558Z,97581.82
2018-12-15T08:24:30.996Z,97582.19
2018-12-15T08:27:00.218Z,97587.88
2018-12-15T08:29:27.631Z,97589.22
2018-12-15T08:31:55.056Z,97590.67
2018-12-15T08:34:22.469Z,97586.51
2018-12-15T08:36:49.888Z,97590.55
2018-12-15T08:39:17.343Z,97589.06
2018-12-15T08:41:44.755Z,97592.45
2018-12-15T08:44:12.170Z,97589.66
2018-12-15T08:46:39.584Z,97599.36
2018-12-15T08:49:07.090Z,97601.50
2018-12-15T08:51:34.496Z,97600.42
2018-12-15T08:54:01.891Z,97600.39
2018-12-15T08:56:29.317Z,97604.59
2018-12-15T08:58:56.724Z,97598.07
2018-12-15T09:01:24.149Z,97602.61
2018-12-15T09:03:52.323Z,97612.38
2018-12-15T09:06:19.771Z,97612.11
2018-12-15T09:08:47.931Z,97623.78
2018-12-15T09:11:15.385Z,97619.88
2018-12-15T09:13:42.803Z,97622.91
2018-12-15T09:16:10.834Z,97625.52
2018-12-15T09:18:38.260Z,97622.39
2018-12-15T09:21:05.854Z,97619.53
2018-12-15T09:23:33.268Z,97619.59
2018-12-15T09:26:00.738Z,97628.92
2018-12-15T09:28:28.156Z,97627.38
2018-12-15T09:30:55.582Z,97626.21
2018-12-15T09:33:23.095Z,97629.91
2018-12-15T09:35:50.550Z,97633.09
2018-12-15T09:38:18.005Z,97638.22
2018-12-15T09:40:45.463Z,97646.37
2018-12-15T09:43:12.913Z,97643.91
2018-12-15T09:45:40.315Z,97650.77
2018-12-15T09:48:07.723Z,97649.98
2018-12-15T09:53:07.284Z,97639.28
2018-12-15T09:55:34.716Z,97628.14
2018-12-15T09:58:02.155Z,97629.89
2018-12-15T10:00:29.589Z,97630.91
2018-12-15T10:02:57.005Z,97637.17
2018-12-15T10:05:24.455Z,97640.16
2018-12-15T10:07:51.868Z,97641.81
2018-12-15T10:10:19.310Z,97640.66
2018-12-15T10:12:46.709Z,97634.57
2018-12-15T10:15:14.126Z,97630.05
2018-12-15T10:17:41.534Z,97621.70
2018-12-15T10:20:08.984Z,97618.13
2018-12-15T10:22:36.761Z,97622.70
2018-12-15T10:25:04.170Z,97619.81
2018-12-15T10:27:31.569Z,97627.52
2018-12-15T10:30:04.521Z,97626.47
2018-12-15T10:35:28.873Z,97623.08
2018-12-15T10:40:29.183Z,97624.66
2018-12-15T10:42:56.594Z,97620.14
2018-12-15T10:45:24.002Z,97622.06
2018-12-15T10:47:51.471Z,97612.94
2018-12-15T10:50:19.151Z,97608.76
2018-12-15T10:52:46.583Z,97598.25
2018-12-15T10:55:14.019Z,97597.19
2018-12-15T10:57:41.440Z,97590.70
2018-12-15T11:00:08.860Z,97598.41
2018-12-15T11:02:36.347Z,97589.12
2018-12-15T11:05:03.755Z,97595.44
2018-12-15T11:07:31.224Z,97597.30
2018-12-15T11:09:58.632Z,97592.42
2018-12-15T11:12:26.071Z,97593.45
2018-12-15T11:14:53.563Z,97577.22
2018-12-15T11:17:22.684Z,97573.57
2018-12-15T11:19:50.808Z,97576.83
2018-12-15T11:22:22.007Z,97569.47
2018-12-15T11:24:49.563Z,97575.59
2018-12-15T11:27:19.559Z,97577.11
2018-12-15T11:29:47.782Z,97581.56
2018-12-15T11:32:15.537Z,97576.59
2018-12-15T11:34:44.296Z,97568.45
2018-12-15T11:37:11.808Z,97574.27
2018-12-15T11:39:39.500Z,97579.42
2018-12-15T11:42:07.061Z,97572.92
2018-12-15T11:44:34.738Z,97576.70
2018-12-15T11:47:02.296Z,97563.08
2018-12-15T11:49:29.883Z,97559.80
2018-12-15T11:51:57.439Z,97562.39
2018-12-15T11:54:24.932Z,97572.69
2018-12-15T11:56:52.396Z,97570.96
2018-12-15T11:59:19.808Z,97565.56
2018-12-15T12:01:47.406Z,97555.55
2018-12-15T12:04:15.097Z,97550.28
2018-12-15T12:06:44.154Z,97549.69
2018-12-15T12:09:11.667Z,97548.17
2018-12-15T12:11:39.072Z,97535.25
2018-12-15T12:14:06.867Z,97548.59
2018-12-15T12:16:34.760Z,97547.11
2018-12-15T12:19:02.607Z,97547.11
2018-12-15T12:21:31.059Z,97548.24
2018-12-15T12:23:58.785Z,97537.63
2018-12-15T12:26:26.271Z,97542.75
2018-12-15T12:28:53.798Z,97542.42
2018-12-15T12:31:21.721Z,97536.02
2018-12-15T12:33:49.195Z,97534.91
2018-12-15T12:36:17.039Z,97534.87
2018-12-15T12:38:46.216Z,97530.31
2018-12-15T12:41:13.746Z,97529.26
2018-12-15T12:43:41.414Z,97522.91
2018-12-15T12:46:09.294Z,97519.97
2018-12-15T12:48:38.015Z,97527.47
2018-12-15T12:51:07.534Z,97529.39
2018-12-15T12:53:36.515Z,97525.23
2018-12-15T12:56:04.345Z,97520.11
2018-12-15T12:58:36.310Z,97531.08
2018-12-15T13:01:03.894Z,97532.32
2018-12-15T13:03:31.373Z,97536.02
2018-12-15T13:05:58.768Z,97528.12
2018-12-15T13:08:26.168Z,97536.43
2018-12-15T13:10:53.758Z,97529.80
2018-12-15T13:13:22.072Z,97525.32
2018-12-15T13:15:49.496Z,97529.14
2018-12-15T13:18:16.928Z,97521.55
2018-12-15T13:20:44.366Z,97512.56
2018-12-15T13:23:11.923Z,97511.89
2018-12-15T13:25:39.340Z,97509.18
2018-12-15T13:28:07.349Z,97501.36
2018-12-15T13:30:34.970Z,97498.08
2018-12-15T13:33:02.282Z,97501.75
2018-12-15T13:35:29.730Z,97500.40
2018-12-15T13:37:57.134Z,97502.74
2018-12-15T13:40:24.561Z,97501.52
2018-12-15T13:42:52.878Z,97500.14
2018-12-15T13:45:21.296Z,97503.66
2018-12-15T13:47:48.722Z,97500.56
2018-12-15T13:50:16.265Z,97504.23
2018-12-15T13:52:43.752Z,97495.02
2018-12-15T13:55:11.234Z,97492.73
2018-12-15T13:57:38.620Z,97499.89
2018-12-15T14:00:06.071Z,97497.22
2018-12-15T14:02:33.544Z,97500.08
2018-12-15T14:05:00.976Z,97495.19
2018-12-15T14:07:28.984Z,97499.27
2018-12-15T14:09:56.444Z,97496.38
2018-12-15T14:12:23.869Z,97498.51
2018-12-15T14:14:51.317Z,97493.52
2018-12-15T14:17:18.736Z,97496.02
2018-12-15T14:19:46.141Z,97508.07
2018-12-15T14:22:13.563Z,97510.26
2018-12-15T14:24:41.126Z,97507.84
2018-12-15T14:27:08.551Z,97505.49
2018-12-15T14:29:36.099Z,97510.38
2018-12-15T14:32:03.513Z,97505.39
2018-12-15T14:34:30.953Z,97501.71
2018-12-15T14:36:58.386Z,97510.71
2018-12-15T14:39:25.799Z,97514.72
2018-12-15T14:41:53.197Z,97514.17
2018-12-15T14:44:20.627Z,97514.55
2018-12-15T14:46:48.034Z,97515.78
2018-12-15T14:49:15.521Z,97511.13
2018-12-15T14:51:42.947Z,97507.75
2018-12-15T14:54:10.362Z,97508.55
2018-12-15T14:56:37.905Z,97515.73
2018-12-15T14:59:05.311Z,97510.13
2018-12-15T15:01:32.799Z,97508.67
2018-12-15T15:04:00.283Z,97514.08
2018-12-15T15:06:27.708Z,97515.38
2018-12-15T15:08:55.188Z,97501.71
2018-12-15T15:11:22.618Z,97505.47
2018-12-15T15:13:50.033Z,97501.77
2018-12-15T15:16:17.456Z,97500.02
2018-12-15T15:18:45.241Z,97508.58
2018-12-15T15:21:12.857Z,97503.00
2018-12-15T15:23:40.462Z,97504.03
2018-12-15T15:26:07.909Z,97498.23
2018-12-15T15:28:35.379Z,97500.05
2018-12-15T15:31:02.835Z,97500.41
2018-12-15T15:33:30.468Z,97499.77
2018-12-15T15:35:58.099Z,97496.50
2018-12-15T15:38:25.518Z,97499.02
2018-12-15T15:40:53.795Z,97499.64
2018-12-15T15:43:21.222Z,97499.12
2018-12-15T15:45:48.642Z,97502.20
2018-12-15T15:48:16.055Z,97501.22
2018-12-15T15:50:43.468Z,97497.95
2018-12-15T15:53:10.916Z,97490.47
2018-12-15T15:55:38.345Z,97499.57
2018-12-15T15:58:06.695Z,97492.28
2018-12-15T16:00:34.137Z,97487.94
2018-12-15T16:03:01.649Z,97481.05
2018-12-15T16:05:29.170Z,97475.51
2018-12-15T16:07:56.590Z,97471.30
2018-12-15T16:10:23.992Z,97469.06
2018-12-15T16:12:51.410Z,97463.61
2018-12-15T16:15:18.805Z,97473.62
2018-12-15T16:17:46.271Z,97467.12
2018-12-15T16:20:13.684Z,97464.53
2018-12-15T16:22:41.232Z,97467.12
2018-12-15T16:25:08.633Z,97461.66
2018-12-15T16:27:36.031Z,97460.91
2018-12-15T16:30:04.073Z,97459.03
2018-12-15T16:32:31.528Z,97466.41
2018-12-15T16:34:58.952Z,97463.56
2018-12-15T16:37:26.425Z,97470.88
2018-12-15T16:39:53.926Z,97470.91
2018-12-15T16:42:21.341Z,97466.47
2018-12-15T16:44:49.491Z,97467.70
2018-12-15T16:47:16.895Z,97460.88
2018-12-15T16:49:44.368Z,97463.02
2018-12-15T16:52:11.824Z,97462.63
2018-12-15T16:54:39.264Z,97456.78
2018-12-15T16:57:06.691Z,97460.45
2018-12-15T16:59:34.091Z,97455.05
2018-12-15T17:02:01.507Z,97456.37
2018-12-15T17:04:28.915Z,97451.16
2018-12-15T17:06:56.477Z,97449.58
2018-12-15T17:09:23.893Z,97448.63
2018-12-15T17:11:51.435Z,97437.40
2018-12-15T17:14:18.833Z,97447.34
2018-12-15T17:16:46.258Z,97447.34
2018-12-15T17:19:13.707Z,97438.63
2018-12-15T17:21:41.124Z,97428.39
2018-12-15T17:24:08.575Z,97429.27
2018-12-15T17:26:35.980Z,97432.70
2018-12-15T17:49:09.210Z,97413.41
2018-12-15T17:51:36.978Z,97416.18
2018-12-15T17:54:04.426Z,97413.92
2018-12-15T17:56:31.961Z,97418.90
2018-12-15T17:59:00.259Z,97415.51
2018-12-15T18:01:27.684Z,97410.21
2018-12-15T18:03:55.091Z,97414.25
2018-12-15T18:06:22.608Z,97412.60
2018-12-15T18:08:50.041Z,97423.23
2018-12-15T18:11:17.444Z,97415.97
2018-12-15T18:13:44.896Z,97416.54
2018-12-15T18:16:12.475Z,97412.65
2018-12-15T18:18:39.931Z,97416.22
2018-12-15T18:21:09.985Z,97410.13
2018-12-15T18:23:35.622Z,97414.02
2018-12-15T18:26:03.019Z,97413.17
2018-12-15T18:28:30.443Z,97417.06
2018-12-15T18:30:57.862Z,97414.96
2018-12-15T18:33:25.282Z,97411.04
2018-12-15T18:35:52.769Z,97409.42
2018-12-15T18:38:20.155Z,97412.51
2018-12-15T18:40:47.588Z,97417.48
2018-12-15T18:43:15.085Z,97404.73
2018-12-15T18:45:42.509Z,97409.19
2018-12-15T18:48:09.919Z,97405.41
2018-12-15T18:50:37.443Z,97400.08
2018-12-15T18:53:04.878Z,97387.75
2018-12-15T18:55:32.341Z,97389.67
2018-12-15T18:57:59.759Z,97389.59
2018-12-15T19:00:27.178Z,97391.70
2018-12-15T19:02:54.597Z,97389.28
2018-12-15T19:05:22.018Z,97383.86
2018-12-15T19:07:49.429Z,97376.57
2018-12-15T19:10:16.846Z,97377.88
2018-12-15T19:12:44.339Z,97381.20
2018-12-15T19:15:11.745Z,97389.05
2018-12-15T19:17:39.499Z,97377.27
2018-12-15T19:20:06.944Z,97370.30
2018-12-15T19:22:34.366Z,97369.88
2018-12-15T19:25:02.151Z,97371.66
2018-12-15T19:27:29.567Z,97370.23
2018-12-15T19:29:57.096Z,97367.84
2018-12-15T19:32:24.489Z,97363.30
2018-12-15T19:34:52.570Z,97362.50
2018-12-15T19:37:19.330Z,97353.23
2018-12-15T19:39:46.747Z,97361.95
2018-12-15T19:42:14.144Z,97350.75
2018-12-15T19:44:41.560Z,97341.25
2018-12-15T19:47:08.990Z,97333.41
2018-12-15T19:49:36.584Z,97336.45
2018-12-15T19:52:04.012Z,97338.09
2018-12-15T19:54:32.109Z,97333.06
2018-12-15T19:56:59.528Z,97332.22
2018-12-15T19:59:26.960Z,97316.44
2018-12-15T20:01:54.564Z,97318.72
2018-12-15T20:04:21.953Z,97311.48
2018-12-15T20:06:49.967Z,97314.88
2018-12-15T20:09:17.728Z,97310.07
2018-12-15T20:11:46.503Z,97310.41
2018-12-15T20:14:13.976Z,97299.77
2018-12-15T20:16:41.386Z,97292.64
2018-12-15T20:19:08.843Z,97301.64
2018-12-15T20:21:36.301Z,97301.19
2018-12-15T20:24:03.824Z,97300.16
2018-12-15T20:26:31.239Z,97301.84
2018-12-15T20:28:58.657Z,97302.75
2018-12-15T20:31:26.080Z,97304.31
2018-12-15T20:36:28.749Z,97313.15
2018-12-15T20:38:56.195Z,97308.34
2018-12-15T20:41:23.609Z,97316.69
2018-12-15T20:43:51.018Z,97312.56
2018-12-15T20:46:18.433Z,97327.27
2018-12-15T20:48:45.875Z,97323.45
2018-12-15T20:51:13.356Z,97334.48
2018-12-15T20:53:40.796Z,97328.05
2018-12-15T20:56:08.203Z,97341.33
2018-12-15T20:58:35.619Z,97336.56
2018-12-15T21:01:03.118Z,97334.95
2018-12-15T21:03:30.529Z,97327.95
2018-12-15T21:05:58.337Z,97330.69
2018-12-15T21:08:25.825Z,97329.09
2018-12-15T21:10:53.235Z,97317.58
2018-12-15T21:13:20.703Z,97313.31
2018-12-15T21:15:48.551Z,97319.03
2018-12-15T21:18:16.058Z,97318.30
2018-12-15T21:20:43.516Z,97321.02
2018-12-15T21:23:10.943Z,97322.39
2018-12-15T21:25:38.377Z,97324.83
2018-12-15T21:28:06.007Z,97317.31
2018-12-15T21:30:33.423Z,97311.75
2018-12-15T21:33:00.824Z,97318.01
2018-12-15T21:35:28.261Z,97308.31
2018-12-15T21:37:55.659Z,97310.59
2018-12-15T21:40:23.162Z,97308.53
2018-12-15T21:42:50.625Z,97311.39
2018-12-15T21:45:18.106Z,97316.28
2018-12-15T21:47:45.525Z,97314.91
2018-12-15T21:50:12.962Z,97307.53
2018-12-15T21:52:40.395Z,97308.13
2018-12-15T21:55:07.961Z,97315.76
2018-12-15T21:57:35.373Z,97316.81
2018-12-15T22:00:02.799Z,97314.27
2018-12-15T22:02:30.464Z,97314.41
2018-12-15T22:04:57.885Z,97312.00
2018-12-15T22:07:25.313Z,97315.35
2018-12-15T22:09:52.710Z,97311.98
2018-12-15T22:12:20.144Z,97314.82
2018-12-15T22:14:47.559Z,97311.52
2018-12-15T22:17:14.964Z,97312.64
2018-12-15T22:19:42.363Z,97310.86
2018-12-15T22:22:09.779Z,97313.62
2018-12-15T22:24:37.194Z,97309.13
2018-12-15T22:27:04.674Z,97309.64
2018-12-15T22:29:32.247Z,97308.64
2018-12-15T22:31:59.678Z,97310.26
2018-12-15T22:34:27.088Z,97293.01
2018-12-15T22:36:54.555Z,97285.65
2018-12-15T22:39:22.147Z,97285.41
2018-12-15T22:41:49.567Z,97288.10
2018-12-15T22:44:17.058Z,97277.86
2018-12-15T22:46:44.471Z,97273.14
2018-12-15T22:49:11.927Z,97269.06
2018-12-15T22:51:39.348Z,97257.95
2018-12-15T22:54:06.795Z,97258.19
2018-12-15T22:56:34.238Z,97248.78
2018-12-15T22:59:01.645Z,97256.98
2018-12-15T23:01:29.070Z,97250.89
2018-12-15T23:03:56.456Z,97248.81
2018-12-15T23:06:23.874Z,97240.84
2018-12-15T23:08:51.294Z,97235.16
2018-12-15T23:11:18.679Z,97233.38
2018-12-15T23:13:46.102Z,97236.44
2018-12-15T23:16:13.496Z,97223.99
2018-12-15T23:18:40.919Z,97217.30
2018-12-15T23:21:08.313Z,97214.02
2018-12-15T23:23:35.723Z,97212.94
2018-12-15T23:26:03.263Z,97203.91
2018-12-15T23:28:30.686Z,97201.69
2018-12-15T23:30:58.103Z,97204.05
2018-12-15T23:33:25.523Z,97207.98
2018-12-15T23:35:52.981Z,97203.14
2018-12-15T23:38:20.799Z,97201.69
2018-12-15T23:40:48.240Z,97210.15
2018-12-15T23:43:15.925Z,97206.89
2018-12-15T23:45:43.341Z,97192.55
2018-12-15T23:48:10.875Z,97187.17
2018-12-15T23:50:38.347Z,97194.42
2018-12-15T23:53:05.793Z,97187.73
2018-12-15T23:55:33.218Z,97174.22
2018-12-15T23:58:00.657Z,97180.61
